Terminal Aerodrome Forecast
Issued by NWS

Home | Current Version | Previous Version | Text Only | Print | Product List | Glossary On
Versions: 1 2 3 4 5 6 7 8 9 10 11 12 13 14 15 16 17 18 19 20 21 22 23 24 25 26 27 28 29 30 31 32 33
000
FTUS43 KDLH 232323
TAFBRD
TAF
KBRD 232323Z 2400/2424 18012G17KT P6SM VCSH BKN080 BKN110
      TEMPO 2400/2403 5SM -SHRA BR BKN045 OVC070
     FM240400 21003KT P6SM SCT050
      TEMPO 2409/2412 2SM BR
     FM241500 32004KT P6SM BKN070=

USA.gov is the U.S. government's official web portal to all federal, state and local government web resources and services.